Oakdale, New York
Current Conditions -  °F | °C
As of 4:56 PM on Saturday 25 Oct 2014 (Local Time) from KISP Reporting Station
Few Clouds Few Clouds  
Wind Chill: 63°   Ceiling: Unl
Heat Index: 63°   Visibility: 10mi
Dew Point: 43°   Wind: 8mph
Humidity: 48%   Direction: 220°SW
Pressure: 29.65"   Gusts: NA
Location:  40.74°N, 73.13°W
Report Text: KISP 252056Z 22007KT 10SM FEW250 17/06 A2965 RMK AO2 SLP041 T01720061 56020
Loading
Personal Weather Stations






























Interactive Weather Map
Tropical Storm Tracking
New forecast layout! Learn more

10-Day Weather Forecast

Advertisements
Track Severe Weather on mobile